Terminal Aerodrome Forecast
Issued by NWS

Home | Current Version | Previous Version | Text Only | Print | Product List | Glossary On
Versions: 1 2 3 4 5 6 7 8 9 10 11 12 13 14 15 16 17 18 19 20 21 22 23 24 25 26 27 28 29 30 31 32 33 34 35
000
FTAK31 PANC 252341 AAA
TAFACD
TAF AMD
PACD 252341Z 2600/2624 15018G26KT P6SM SCT012 OVC040
      TEMPO 2600/2604 BKN012=

USA.gov is the U.S. government's official web portal to all federal, state and local government web resources and services.